| time (UTC) | temp F | wind direction | speed MPH | gust MPH | rain 1hr in | rain 24hr in | rain mn in | humidity % | barometer mb |
| 20260901031604 | 55 | 0 | 0.0 | 0.0 | 0.04 | 0.07 | 0.07 | 90 | 1028.4 |
| 20260901031044 | 55 | 0 | 0.0 | 0.0 | 0.04 | 0.07 | 0.07 | 89 | 1028.1 |
| 20260901030548 | 56 | 0 | 0.0 | 1.0 | 0.03 | 0.06 | 0.06 | 89 | 1028.4 |
| 20260901030104 | 56 | 0 | 0.0 | 2.0 | 0.03 | 0.06 | 0.06 | 88 | 1028.6 |
| 20260901025547 | 56 | 0 | 0.0 | 7.0 | 0.02 | 0.05 | 0.05 | 88 | 1028.6 |
| 20260901025046 | 56 | 0 | 0.0 | 10.0 | 0.02 | 0.05 | 0.05 | 87 | 1028.5 |
| 20260901024600 | 56 | 312 | 1.0 | 10.0 | 0.02 | 0.05 | 0.05 | 86 | 1028.5 |
| 20260901024045 | 57 | 0 | 0.0 | 7.0 | 0.02 | 0.05 | 0.05 | 86 | 1028.4 |
| 20260901023546 | 57 | 0 | 0.0 | 8.0 | 0.02 | 0.05 | 0.05 | 85 | 1028.3 |
| 20260901023058 | 57 | 0 | 0.0 | 11.0 | 0.01 | 0.04 | 0.04 | 84 | 1028.2 |
| 20260901022546 | 58 | 0 | 0.0 | 11.0 | 0.01 | 0.04 | 0.04 | 83 | 1028.2 |
| 20260901022043 | 58 | 255 | 2.0 | 11.0 | 0.01 | 0.04 | 0.04 | 81 | 1028.1 |
| 20260901021606 | 58 | 261 | 1.0 | 9.0 | 0.00 | 0.03 | 0.03 | 81 | 1027.7 |
| 20260901021046 | 58 | 0 | 0.0 | 4.0 | 0.00 | 0.03 | 0.03 | 81 | 1027.2 |
| 20260901020546 | 58 | 0 | 0.0 | 0.0 | 0.00 | 0.03 | 0.03 | 80 | 1026.9 |
| 20260901020053 | 58 | 0 | 0.0 | 4.0 | 0.00 | 0.03 | 0.03 | 80 | 1026.8 |
| 20260901015546 | 57 | 0 | 0.0 | 5.0 | 0.00 | 0.03 | 0.03 | 81 | 1026.7 |
| 20260901015045 | 57 | 0 | 0.0 | 5.0 | 0.00 | 0.03 | 0.03 | 81 | 1026.6 |
| 20260901014601 | 57 | 0 | 0.0 | 1.0 | 0.00 | 0.03 | 0.03 | 81 | 1026.7 |
| 20260901014045 | 57 | 0 | 0.0 | 2.0 | 0.00 | 0.03 | 0.03 | 81 | 1026.7 |
| 20260901013547 | 57 | 0 | 0.0 | 2.0 | 0.00 | 0.03 | 0.03 | 81 | 1026.7 |
| 20260901013112 | 57 | 0 | 0.0 | 2.0 | 0.00 | 0.03 | 0.03 | 83 | 1026.7 |
| 20260901012546 | 57 | 0 | 0.0 | 0.0 | 0.01 | 0.03 | 0.03 | 83 | 1026.7 |
| 20260901012045 | 57 | 0 | 0.0 | 0.0 | 0.01 | 0.03 | 0.03 | 84 | 1026.8 |
| 20260901011612 | 57 | 0 | 0.0 | 3.0 | 0.01 | 0.03 | 0.03 | 84 | 1026.8 |
| 20260901011046 | 57 | 0 | 0.0 | 3.0 | 0.02 | 0.03 | 0.03 | 85 | 1026.9 |
| 20260901010549 | 57 | 0 | 0.0 | 0.0 | 0.03 | 0.03 | 0.03 | 85 | 1026.9 |
| 20260901010111 | 57 | 0 | 0.0 | 0.0 | 0.03 | 0.03 | 0.03 | 86 | 1027.0 |
| 20260901005545 | 57 | 0 | 0.0 | 3.0 | 0.03 | 0.03 | 0.03 | 86 | 1027.0 |
| 20260901005049 | 57 | 0 | 0.0 | 3.0 | 0.03 | 0.03 | 0.03 | 87 | 1027.1 |
| 20260901004600 | 57 | 0 | 0.0 | 3.0 | 0.03 | 0.03 | 0.03 | 87 | 1027.3 |
| 20260901004046 | 57 | 256 | 0.0 | 3.0 | 0.03 | 0.03 | 0.03 | 86 | 1027.6 |
| 20260901003550 | 57 | 0 | 0.0 | 2.0 | 0.03 | 0.03 | 0.03 | 85 | 1027.5 |
| 20260901003059 | 58 | 0 | 0.0 | 4.0 | 0.03 | 0.03 | 0.03 | 84 | 1027.3 |
| 20260901002547 | 58 | 304 | 0.0 | 4.0 | 0.02 | 0.02 | 0.02 | 83 | 1027.4 |
| 20260901002048 | 59 | 0 | 0.0 | 9.0 | 0.02 | 0.02 | 0.02 | 81 | 1027.7 |
| 20260901001555 | 61 | 248 | 0.0 | 12.0 | 0.02 | 0.02 | 0.02 | 77 | 1027.5 |
| 20260901001046 | 63 | 238 | 2.0 | 12.0 | 0.01 | 0.01 | 0.01 | 69 | 1027.5 |
| 20260901000546 | 66 | 360 | 4.0 | 12.0 | 0.00 | 0.00 | 0.00 | 60 | 1027.4 |
| 20260901000055 | 67 | 0 | 3.0 | 9.0 | 0.00 | 0.00 | 0.00 | 52 | 1027.1 |
| 20260831235546 | 68 | 0 | 0.0 | 3.0 | 0.00 | 0.00 | 0.00 | 45 | 1026.8 |
| 20260831235046 | 69 | 0 | 0.0 | 1.0 | 0.00 | 0.00 | 0.00 | 44 | 1026.4 |
| 20260831234602 | 69 | 0 | 0.0 | 4.0 | 0.00 | 0.00 | 0.00 | 43 | 1026.3 |
| 20260831234046 | 70 | 0 | 0.0 | 4.0 | 0.00 | 0.00 | 0.00 | 42 | 1026.2 |
| 20260831233544 | 70 | 0 | 0.0 | 2.0 | 0.00 | 0.00 | 0.00 | 42 | 1026.2 |
| 20260831233103 | 70 | 0 | 0.0 | 2.0 | 0.00 | 0.00 | 0.00 | 41 | 1026.2 |
| 20260831232545 | 70 | 0 | 0.0 | 0.0 | 0.00 | 0.00 | 0.00 | 42 | 1026.1 |
| 20260831232049 | 70 | 0 | 0.0 | 0.0 | 0.00 | 0.00 | 0.00 | 41 | 1026.1 |
| 20260831231559 | 71 | 0 | 0.0 | 0.0 | 0.00 | 0.00 | 0.00 | 41 | 1026.2 |
| 20260831231047 | 71 | 0 | 0.0 | 0.0 | 0.00 | 0.00 | 0.00 | 41 | 1026.2 |
| 20260831230550 | 71 | 0 | 0.0 | 4.0 | 0.00 | 0.00 | 0.00 | 41 | 1026.3 |
| 20260831230055 | 71 | 0 | 0.0 | 6.0 | 0.00 | 0.00 | 0.00 | 41 | 1026.2 |
| 20260831225549 | 71 | 41 | 1.0 | 7.0 | 0.00 | 0.00 | 0.00 | 41 | 1026.3 |
| 20260831225045 | 71 | 0 | 1.0 | 7.0 | 0.00 | 0.00 | 0.00 | 40 | 1026.4 |
| 20260831224600 | 71 | 0 | 0.0 | 6.0 | 0.00 | 0.00 | 0.00 | 40 | 1026.4 |
| 20260831224049 | 71 | 48 | 0.0 | 6.0 | 0.00 | 0.00 | 0.00 | 40 | 1026.4 |
| 20260831223550 | 72 | 50 | 1.0 | 9.0 | 0.00 | 0.00 | 0.00 | 39 | 1026.4 |
| 20260831223059 | 72 | 55 | 4.0 | 9.0 | 0.00 | 0.00 | 0.00 | 39 | 1026.4 |
| 20260831222546 | 72 | 0 | 0.0 | 6.0 | 0.00 | 0.00 | 0.00 | 39 | 1026.4 |
| 20260831222046 | 72 | 0 | 0.0 | 6.0 | 0.00 | 0.00 | 0.00 | 40 | 1026.4 |
| 20260831221606 | 72 | 0 | 0.0 | 5.0 | 0.00 | 0.00 | 0.00 | 40 | 1026.5 |
| 20260831221046 | 72 | 0 | 0.0 | 3.0 | 0.00 | 0.00 | 0.00 | 40 | 1026.6 |
| 20260831220546 | 72 | 0 | 0.0 | 3.0 | 0.00 | 0.00 | 0.00 | 39 | 1026.5 |
| 20260831220052 | 72 | 0 | 0.0 | 5.0 | 0.00 | 0.00 | 0.00 | 39 | 1026.5 |
| 20260831215545 | 72 | 0 | 0.0 | 5.0 | 0.00 | 0.00 | 0.00 | 39 | 1026.4 |
| 20260831215047 | 72 | 0 | 0.0 | 5.0 | 0.00 | 0.00 | 0.00 | 39 | 1026.4 |
| 20260831214610 | 72 | 0 | 0.0 | 6.0 | 0.00 | 0.00 | 0.00 | 39 | 1026.5 |
| 20260831214046 | 72 | 42 | 1.0 | 6.0 | 0.00 | 0.00 | 0.00 | 39 | 1026.5 |
| 20260831213546 | 72 | 53 | 0.0 | 4.0 | 0.00 | 0.00 | 0.00 | 39 | 1026.5 |
| 20260831213058 | 71 | 0 | 0.0 | 3.0 | 0.00 | 0.00 | 0.00 | 39 | 1026.5 |
| 20260831212548 | 71 | 53 | 0.0 | 5.0 | 0.00 | 0.00 | 0.00 | 38 | 1026.7 |
| 20260831212046 | 72 | 0 | 0.0 | 5.0 | 0.00 | 0.00 | 0.00 | 38 | 1026.8 |
| 20260831211552 | 72 | 0 | 0.0 | 9.0 | 0.00 | 0.00 | 0.00 | 38 | 1026.9 |
| 20260831211046 | 72 | 0 | 0.0 | 9.0 | 0.00 | 0.00 | 0.00 | 37 | 1027.0 |
| 20260831210547 | 72 | 56 | 2.0 | 7.0 | 0.00 | 0.00 | 0.00 | 36 | 1027.0 |
| 20260831210100 | 73 | 0 | 1.0 | 7.0 | 0.00 | 0.00 | 0.00 | 36 | 1027.0 |
| 20260831205547 | 73 | 0 | 0.0 | 5.0 | 0.00 | 0.05 | 0.00 | 35 | 1027.1 |
| 20260831205044 | 73 | 0 | 1.0 | 5.0 | 0.00 | 0.05 | 0.00 | 36 | 1027.1 |
| 20260831204556 | 73 | 0 | 0.0 | 6.0 | 0.00 | 0.05 | 0.00 | 35 | 1027.2 |
| 20260831204051 | 73 | 0 | 0.0 | 6.0 | 0.00 | 0.05 | 0.00 | 36 | 1027.2 |
| 20260831203546 | 73 | 0 | 2.0 | 6.0 | 0.00 | 0.05 | 0.00 | 35 | 1027.2 |
| 20260831203104 | 74 | 0 | 1.0 | 6.0 | 0.00 | 0.05 | 0.00 | 34 | 1027.2 |
| 20260831202545 | 73 | 0 | 0.0 | 10.0 | 0.00 | 0.05 | 0.00 | 34 | 1027.3 |
| 20260831202048 | 73 | 0 | 2.0 | 10.0 | 0.00 | 0.05 | 0.00 | 34 | 1027.4 |
| 20260831201556 | 74 | 0 | 0.0 | 9.0 | 0.00 | 0.05 | 0.00 | 33 | 1027.4 |
| 20260831201048 | 74 | 0 | 1.0 | 9.0 | 0.00 | 0.05 | 0.00 | 33 | 1027.4 |
| 20260831200546 | 74 | 51 | 3.0 | 16.0 | 0.00 | 0.05 | 0.00 | 32 | 1027.5 |
| 20260831200108 | 74 | 0 | 3.0 | 16.0 | 0.00 | 0.05 | 0.00 | 33 | 1027.5 |
| 20260831195546 | 74 | 37 | 1.0 | 9.0 | 0.00 | 0.05 | 0.00 | 33 | 1027.5 |
| 20260831195046 | 75 | 51 | 2.0 | 9.0 | 0.00 | 0.05 | 0.00 | 33 | 1027.5 |
| 20260831194614 | 74 | 42 | 1.0 | 8.0 | 0.00 | 0.05 | 0.00 | 34 | 1027.6 |
| 20260831194047 | 73 | 0 | 1.0 | 6.0 | 0.00 | 0.05 | 0.00 | 36 | 1027.6 |
| 20260831193544 | 73 | 42 | 0.0 | 7.0 | 0.00 | 0.05 | 0.00 | 36 | 1027.7 |
| 20260831193056 | 73 | 0 | 2.0 | 7.0 | 0.00 | 0.05 | 0.00 | 37 | 1027.7 |
| 20260831192547 | 72 | 0 | 0.0 | 9.0 | 0.00 | 0.05 | 0.00 | 36 | 1027.8 |
| 20260831192047 | 73 | 30 | 0.0 | 9.0 | 0.00 | 0.05 | 0.00 | 36 | 1027.8 |
| 20260831191555 | 73 | 0 | 0.0 | 5.0 | 0.00 | 0.05 | 0.00 | 37 | 1027.8 |
| 20260831191052 | 74 | 0 | 0.0 | 5.0 | 0.00 | 0.05 | 0.00 | 35 | 1027.9 |
| 20260831190547 | 74 | 24 | 0.0 | 5.0 | 0.00 | 0.05 | 0.00 | 36 | 1027.9 |
| 20260831190108 | 74 | 74 | 1.0 | 7.0 | 0.00 | 0.05 | 0.00 | 36 | 1027.9 |
| 20260831185547 | 73 | 0 | 0.0 | 13.0 | 0.00 | 0.05 | 0.00 | 37 | 1028.0 |
| 20260831185046 | 73 | 44 | 3.0 | 13.0 | 0.00 | 0.05 | 0.00 | 37 | 1028.1 |
| 20260831184605 | 73 | 49 | 1.0 | 6.0 | 0.00 | 0.05 | 0.00 | 37 | 1028.1 |
| 20260831184045 | 72 | 57 | 0.0 | 10.0 | 0.00 | 0.05 | 0.00 | 38 | 1028.2 |
| 20260831183544 | 72 | 0 | 1.0 | 10.0 | 0.00 | 0.05 | 0.00 | 40 | 1028.2 |
| 20260831183100 | 71 | 46 | 3.0 | 12.0 | 0.00 | 0.05 | 0.00 | 40 | 1028.2 |
| 20260831182544 | 71 | 61 | 7.0 | 12.0 | 0.00 | 0.05 | 0.00 | 40 | 1028.3 |
| 20260831182044 | 70 | 0 | 1.0 | 6.0 | 0.00 | 0.05 | 0.00 | 41 | 1028.2 |
| 20260831181559 | 70 | 59 | 0.0 | 3.0 | 0.00 | 0.05 | 0.00 | 41 | 1028.3 |
| 20260831181047 | 70 | 0 | 0.0 | 6.0 | 0.00 | 0.05 | 0.00 | 41 | 1028.4 |
| 20260831180551 | 70 | 0 | 0.0 | 6.0 | 0.00 | 0.05 | 0.00 | 41 | 1028.4 |
| 20260831180100 | 71 | 0 | 1.0 | 5.0 | 0.00 | 0.05 | 0.00 | 40 | 1028.4 |
| 20260831175548 | 71 | 59 | 0.0 | 5.0 | 0.00 | 0.05 | 0.00 | 41 | 1028.4 |
| 20260831175046 | 71 | 74 | 0.0 | 5.0 | 0.00 | 0.05 | 0.00 | 40 | 1028.4 |
| 20260831174600 | 71 | 0 | 0.0 | 6.0 | 0.00 | 0.05 | 0.00 | 42 | 1028.4 |
| 20260831174047 | 71 | 0 | 0.0 | 6.0 | 0.00 | 0.05 | 0.00 | 40 | 1028.4 |
| 20260831173548 | 71 | 0 | 0.0 | 5.0 | 0.00 | 0.05 | 0.00 | 40 | 1028.4 |
| 20260831173059 | 71 | 0 | 0.0 | 6.0 | 0.00 | 0.05 | 0.00 | 40 | 1028.4 |
| 20260831172547 | 71 | 0 | 0.0 | 6.0 | 0.00 | 0.05 | 0.00 | 41 | 1028.4 |
| 20260831172050 | 71 | 0 | 0.0 | 6.0 | 0.00 | 0.05 | 0.00 | 40 | 1028.4 |
| 20260831171605 | 71 | 0 | 0.0 | 0.0 | 0.00 | 0.05 | 0.00 | 40 | 1028.4 |
| 20260831171045 | 71 | 0 | 0.0 | 5.0 | 0.00 | 0.05 | 0.00 | 41 | 1028.4 |
| 20260831170545 | 71 | 0 | 0.0 | 5.0 | 0.00 | 0.05 | 0.00 | 40 | 1028.4 |
| 20260831165544 | 71 | 0 | 0.0 | 0.0 | 0.00 | 0.05 | 0.00 | 40 | 1028.4 |
| 20260831165045 | 71 | 0 | 0.0 | 0.0 | 0.00 | 0.05 | 0.00 | 39 | 1028.4 |
| 20260831164559 | 71 | 0 | 0.0 | 3.0 | 0.00 | 0.05 | 0.00 | 38 | 1028.3 |
| 20260831164043 | 71 | 0 | 0.0 | 3.0 | 0.00 | 0.05 | 0.00 | 39 | 1028.3 |
| 20260831163545 | 70 | 0 | 0.0 | 2.0 | 0.00 | 0.05 | 0.00 | 40 | 1028.3 |
| 20260831163103 | 70 | 0 | 0.0 | 3.0 | 0.00 | 0.05 | 0.00 | 40 | 1028.3 |
| 20260831162549 | 70 | 0 | 0.0 | 3.0 | 0.00 | 0.05 | 0.00 | 39 | 1028.3 |
| 20260831162046 | 70 | 0 | 0.0 | 3.0 | 0.00 | 0.05 | 0.00 | 40 | 1028.2 |
| 20260831161608 | 69 | 0 | 0.0 | 0.0 | 0.00 | 0.05 | 0.00 | 40 | 1028.2 |
| 20260831161045 | 69 | 0 | 0.0 | 2.0 | 0.00 | 0.05 | 0.00 | 40 | 1028.2 |
| 20260831160546 | 69 | 0 | 0.0 | 2.0 | 0.00 | 0.05 | 0.00 | 40 | 1028.1 |
| 20260831160057 | 69 | 0 | 0.0 | 1.0 | 0.00 | 0.05 | 0.00 | 41 | 1028.1 |
| 20260831155549 | 69 | 0 | 0.0 | 0.0 | 0.00 | 0.05 | 0.00 | 41 | 1028.0 |
| 20260831155046 | 69 | 0 | 0.0 | 2.0 | 0.00 | 0.05 | 0.00 | 41 | 1028.0 |
| 20260831154629 | 69 | 0 | 0.0 | 2.0 | 0.00 | 0.05 | 0.00 | 41 | 1028.0 |
| 20260831154048 | 68 | 0 | 0.0 | 2.0 | 0.00 | 0.05 | 0.00 | 41 | 1028.1 |
| 20260831153545 | 68 | 0 | 0.0 | 1.0 | 0.00 | 0.05 | 0.00 | 41 | 1027.9 |
| 20260831153059 | 68 | 0 | 0.0 | 1.0 | 0.00 | 0.05 | 0.00 | 42 | 1027.9 |
| 20260831152545 | 67 | 0 | 0.0 | 0.0 | 0.00 | 0.05 | 0.00 | 45 | 1027.9 |
| 20260831152045 | 67 | 0 | 0.0 | 0.0 | 0.00 | 0.05 | 0.00 | 47 | 1028.0 |
| 20260831151555 | 66 | 0 | 0.0 | 1.0 | 0.00 | 0.05 | 0.00 | 48 | 1028.0 |
| 20260831151048 | 66 | 0 | 0.0 | 2.0 | 0.00 | 0.05 | 0.00 | 48 | 1028.0 |
| 20260831150544 | 65 | 0 | 0.0 | 2.0 | 0.00 | 0.05 | 0.00 | 48 | 1028.0 |
| 20260831150053 | 65 | 0 | 0.0 | 1.0 | 0.00 | 0.05 | 0.00 | 49 | 1028.0 |
| 20260831145544 | 64 | 0 | 0.0 | 2.0 | 0.00 | 0.05 | 0.00 | 49 | 1027.9 |
| 20260831145049 | 64 | 0 | 0.0 | 4.0 | 0.00 | 0.05 | 0.00 | 50 | 1028.0 |
| 20260831144604 | 64 | 0 | 0.0 | 4.0 | 0.00 | 0.05 | 0.00 | 51 | 1028.1 |
| 20260831144044 | 64 | 0 | 0.0 | 4.0 | 0.00 | 0.05 | 0.00 | 51 | 1028.1 |
| 20260831143547 | 63 | 0 | 0.0 | 1.0 | 0.00 | 0.05 | 0.00 | 52 | 1028.0 |
| 20260831143055 | 63 | 0 | 0.0 | 1.0 | 0.00 | 0.05 | 0.00 | 52 | 1028.0 |
| 20260831142548 | 63 | 0 | 0.0 | 4.0 | 0.00 | 0.05 | 0.00 | 54 | 1027.9 |
| 20260831142044 | 62 | 0 | 0.0 | 4.0 | 0.00 | 0.05 | 0.00 | 54 | 1028.0 |
| 20260831141558 | 62 | 0 | 0.0 | 4.0 | 0.00 | 0.05 | 0.00 | 54 | 1027.8 |
| 20260831141049 | 62 | 0 | 0.0 | 0.0 | 0.00 | 0.05 | 0.00 | 54 | 1027.8 |
| 20260831140547 | 61 | 0 | 0.0 | 1.0 | 0.00 | 0.05 | 0.00 | 54 | 1027.7 |
| 20260831135544 | 61 | 0 | 0.0 | 1.0 | 0.00 | 0.05 | 0.00 | 53 | 1027.6 |
| 20260831135048 | 61 | 0 | 0.0 | 0.0 | 0.00 | 0.05 | 0.00 | 53 | 1027.4 |
| 20260831134604 | 60 | 0 | 0.0 | 0.0 | 0.00 | 0.05 | 0.00 | 54 | 1027.4 |
| 20260831134047 | 60 | 0 | 0.0 | 0.0 | 0.00 | 0.05 | 0.00 | 54 | 1027.4 |
| 20260831133552 | 60 | 0 | 0.0 | 0.0 | 0.00 | 0.05 | 0.00 | 55 | 1027.3 |
| 20260831133103 | 60 | 0 | 0.0 | 0.0 | 0.00 | 0.05 | 0.00 | 55 | 1027.3 |
| 20260831132546 | 60 | 0 | 0.0 | 0.0 | 0.00 | 0.05 | 0.00 | 55 | 1027.2 |
| 20260831132046 | 59 | 0 | 0.0 | 1.0 | 0.00 | 0.05 | 0.00 | 55 | 1027.2 |
| 20260831131555 | 59 | 0 | 0.0 | 1.0 | 0.00 | 0.05 | 0.00 | 55 | 1027.1 |
| 20260831131046 | 59 | 0 | 0.0 | 1.0 | 0.00 | 0.05 | 0.00 | 55 | 1027.1 |
| 20260831130547 | 59 | 0 | 0.0 | 2.0 | 0.00 | 0.05 | 0.00 | 56 | 1027.0 |
| 20260831130101 | 59 | 0 | 0.0 | 2.0 | 0.00 | 0.05 | 0.00 | 56 | 1027.0 |
| 20260831125545 | 59 | 0 | 0.0 | 2.0 | 0.00 | 0.05 | 0.00 | 56 | 1027.0 |
| 20260831125047 | 58 | 0 | 0.0 | 0.0 | 0.00 | 0.05 | 0.00 | 57 | 1026.8 |
| 20260831124559 | 58 | 0 | 0.0 | 0.0 | 0.00 | 0.05 | 0.00 | 58 | 1026.8 |
| 20260831124048 | 58 | 0 | 0.0 | 0.0 | 0.00 | 0.05 | 0.00 | 57 | 1026.7 |
| 20260831123547 | 58 | 0 | 0.0 | 3.0 | 0.00 | 0.05 | 0.00 | 57 | 1026.7 |
| 20260831123057 | 58 | 0 | 0.0 | 3.0 | 0.00 | 0.05 | 0.00 | 57 | 1026.8 |
| 20260831122548 | 58 | 0 | 0.0 | 0.0 | 0.00 | 0.05 | 0.00 | 58 | 1026.8 |
| 20260831122048 | 58 | 0 | 0.0 | 0.0 | 0.00 | 0.05 | 0.00 | 58 | 1026.8 |
| 20260831121557 | 58 | 0 | 0.0 | 1.0 | 0.00 | 0.05 | 0.00 | 58 | 1026.7 |
| 20260831121046 | 58 | 0 | 0.0 | 1.0 | 0.00 | 0.05 | 0.00 | 58 | 1026.6 |
| 20260831120545 | 58 | 0 | 0.0 | 0.0 | 0.00 | 0.05 | 0.00 | 58 | 1026.6 |
| 20260831120108 | 58 | 0 | 0.0 | 0.0 | 0.00 | 0.05 | 0.00 | 59 | 1026.5 |
| 20260831115546 | 58 | 0 | 0.0 | 2.0 | 0.00 | 0.05 | 0.00 | 58 | 1026.5 |
| 20260831115047 | 58 | 0 | 0.0 | 2.0 | 0.00 | 0.05 | 0.00 | 58 | 1026.5 |
| 20260831114557 | 58 | 0 | 0.0 | 0.0 | 0.00 | 0.05 | 0.00 | 59 | 1026.4 |
| 20260831114047 | 57 | 0 | 0.0 | 0.0 | 0.00 | 0.05 | 0.00 | 59 | 1026.4 |
| 20260831113547 | 57 | 0 | 0.0 | 0.0 | 0.00 | 0.05 | 0.00 | 59 | 1026.6 |
| 20260831113106 | 57 | 0 | 0.0 | 0.0 | 0.00 | 0.05 | 0.00 | 60 | 1026.5 |
| 20260831112546 | 58 | 0 | 0.0 | 0.0 | 0.00 | 0.05 | 0.00 | 59 | 1026.4 |
| 20260831112047 | 58 | 0 | 0.0 | 0.0 | 0.00 | 0.05 | 0.00 | 60 | 1026.4 |
| 20260831111608 | 57 | 0 | 0.0 | 0.0 | 0.00 | 0.05 | 0.00 | 59 | 1026.4 |
| 20260831111049 | 57 | 0 | 0.0 | 6.0 | 0.00 | 0.05 | 0.00 | 60 | 1026.3 |
| 20260831110551 | 56 | 0 | 0.0 | 6.0 | 0.00 | 0.05 | 0.00 | 60 | 1026.2 |
| 20260831110104 | 56 | 0 | 0.0 | 2.0 | 0.00 | 0.05 | 0.00 | 62 | 1026.3 |
| 20260831105550 | 56 | 0 | 0.0 | 1.0 | 0.00 | 0.05 | 0.00 | 63 | 1026.4 |
| 20260831105048 | 55 | 0 | 0.0 | 0.0 | 0.00 | 0.05 | 0.00 | 64 | 1026.3 |
| 20260831104603 | 55 | 0 | 0.0 | 0.0 | 0.00 | 0.05 | 0.00 | 64 | 1026.2 |
| 20260831104044 | 55 | 0 | 0.0 | 0.0 | 0.00 | 0.05 | 0.00 | 65 | 1026.2 |
| 20260831103547 | 54 | 0 | 0.0 | 0.0 | 0.00 | 0.05 | 0.00 | 66 | 1026.2 |
| 20260831103104 | 54 | 0 | 0.0 | 0.0 | 0.00 | 0.05 | 0.00 | 66 | 1026.1 |
| 20260831102546 | 53 | 0 | 0.0 | 0.0 | 0.00 | 0.05 | 0.00 | 68 | 1026.0 |
| 20260831102045 | 53 | 0 | 0.0 | 0.0 | 0.00 | 0.05 | 0.00 | 69 | 1026.0 |
| 20260831101557 | 53 | 0 | 0.0 | 0.0 | 0.00 | 0.05 | 0.00 | 69 | 1026.1 |
| 20260831101045 | 53 | 0 | 0.0 | 0.0 | 0.00 | 0.05 | 0.00 | 69 | 1026.0 |
| 20260831100547 | 53 | 0 | 0.0 | 0.0 | 0.00 | 0.05 | 0.00 | 70 | 1026.0 |
| 20260831100108 | 53 | 0 | 0.0 | 0.0 | 0.00 | 0.05 | 0.00 | 69 | 1025.9 |
| 20260831095548 | 53 | 0 | 0.0 | 0.0 | 0.00 | 0.05 | 0.00 | 69 | 1025.8 |
| 20260831095048 | 53 | 0 | 0.0 | 0.0 | 0.00 | 0.05 | 0.00 | 69 | 1025.7 |
| 20260831094604 | 54 | 0 | 0.0 | 0.0 | 0.00 | 0.05 | 0.00 | 67 | 1025.7 |
| 20260831094046 | 54 | 0 | 0.0 | 0.0 | 0.00 | 0.05 | 0.00 | 67 | 1025.6 |
| 20260831093546 | 55 | 0 | 0.0 | 0.0 | 0.00 | 0.05 | 0.00 | 67 | 1025.7 |
| 20260831093057 | 55 | 0 | 0.0 | 0.0 | 0.00 | 0.05 | 0.00 | 65 | 1025.6 |
| 20260831092546 | 55 | 0 | 0.0 | 0.0 | 0.00 | 0.05 | 0.00 | 65 | 1025.5 |
| 20260831092044 | 55 | 0 | 0.0 | 0.0 | 0.00 | 0.05 | 0.00 | 63 | 1025.5 |
| 20260831091600 | 55 | 0 | 0.0 | 0.0 | 0.00 | 0.05 | 0.00 | 63 | 1025.5 |
| 20260831091044 | 56 | 0 | 0.0 | 0.0 | 0.00 | 0.05 | 0.00 | 63 | 1025.6 |
| 20260831090544 | 56 | 0 | 0.0 | 0.0 | 0.00 | 0.05 | 0.00 | 64 | 1025.5 |
| 20260831090047 | 56 | 0 | 0.0 | 0.0 | 0.00 | 0.05 | 0.00 | 64 | 1025.4 |
| 20260831085545 | 56 | 0 | 0.0 | 0.0 | 0.00 | 0.05 | 0.00 | 63 | 1025.4 |
| 20260831085044 | 55 | 0 | 0.0 | 0.0 | 0.00 | 0.05 | 0.00 | 63 | 1025.5 |
| 20260831084609 | 55 | 0 | 0.0 | 0.0 | 0.00 | 0.05 | 0.00 | 64 | 1025.6 |
| 20260831084045 | 56 | 0 | 0.0 | 0.0 | 0.00 | 0.05 | 0.00 | 64 | 1025.5 |
| 20260831083543 | 56 | 0 | 0.0 | 0.0 | 0.00 | 0.05 | 0.00 | 63 | 1025.5 |
| 20260831083054 | 56 | 0 | 0.0 | 0.0 | 0.00 | 0.05 | 0.00 | 63 | 1025.7 |
| 20260831082544 | 56 | 0 | 0.0 | 0.0 | 0.00 | 0.05 | 0.00 | 63 | 1025.7 |
| 20260831082045 | 56 | 0 | 0.0 | 0.0 | 0.00 | 0.05 | 0.00 | 62 | 1025.7 |
| 20260831081555 | 56 | 0 | 0.0 | 0.0 | 0.00 | 0.05 | 0.00 | 62 | 1025.7 |
| 20260831081044 | 57 | 0 | 0.0 | 0.0 | 0.00 | 0.05 | 0.00 | 61 | 1025.7 |
| 20260831080541 | 57 | 0 | 0.0 | 0.0 | 0.00 | 0.05 | 0.00 | 61 | 1025.7 |
| 20260831080135 | 57 | 0 | 0.0 | 0.0 | 0.00 | 0.05 | 0.00 | 61 | 1025.7 |
| 20260831075543 | 57 | 0 | 0.0 | 0.0 | 0.00 | 0.05 | 0.00 | 60 | 1025.8 |
| 20260831075043 | 57 | 0 | 0.0 | 0.0 | 0.00 | 0.05 | 0.00 | 61 | 1025.9 |
| 20260831074601 | 57 | 0 | 0.0 | 0.0 | 0.00 | 0.05 | 0.00 | 61 | 1025.9 |
| 20260831074045 | 57 | 0 | 0.0 | 0.0 | 0.00 | 0.05 | 0.00 | 62 | 1026.0 |
| 20260831073547 | 57 | 0 | 0.0 | 0.0 | 0.00 | 0.05 | 0.00 | 62 | 1026.2 |
| 20260831073113 | 57 | 0 | 0.0 | 0.0 | 0.00 | 0.05 | 0.00 | 61 | 1026.2 |
| 20260831072544 | 57 | 0 | 0.0 | 0.0 | 0.00 | 0.05 | 0.00 | 63 | 1026.4 |
| 20260831072044 | 56 | 0 | 0.0 | 0.0 | 0.00 | 0.05 | 0.00 | 63 | 1026.6 |
| 20260831071602 | 56 | 0 | 0.0 | 0.0 | 0.00 | 0.05 | 0.00 | 64 | 1026.5 |
| 20260831071044 | 57 | 0 | 0.0 | 0.0 | 0.00 | 0.05 | 0.00 | 64 | 1026.7 |
| 20260831070549 | 57 | 0 | 0.0 | 0.0 | 0.00 | 0.05 | 0.00 | 64 | 1026.6 |
| 20260831070100 | 57 | 0 | 0.0 | 0.0 | 0.00 | 0.05 | 0.00 | 63 | 1026.7 |
| 20260831065544 | 57 | 0 | 0.0 | 0.0 | 0.00 | 0.05 | 0.00 | 63 | 1026.7 |
| 20260831065045 | 57 | 0 | 0.0 | 0.0 | 0.00 | 0.05 | 0.00 | 64 | 1026.7 |
| 20260831064552 | 58 | 0 | 0.0 | 0.0 | 0.00 | 0.05 | 0.00 | 63 | 1026.7 |
| 20260831064043 | 58 | 0 | 0.0 | 0.0 | 0.00 | 0.05 | 0.00 | 63 | 1026.7 |
| 20260831063547 | 58 | 0 | 0.0 | 0.0 | 0.00 | 0.05 | 0.00 | 62 | 1026.6 |
| 20260831063101 | 58 | 0 | 0.0 | 0.0 | 0.00 | 0.05 | 0.00 | 62 | 1026.5 |
| 20260831062544 | 58 | 0 | 0.0 | 0.0 | 0.00 | 0.05 | 0.00 | 63 | 1026.4 |
| 20260831062045 | 58 | 0 | 0.0 | 7.0 | 0.00 | 0.05 | 0.00 | 63 | 1026.2 |
| 20260831061558 | 58 | 0 | 0.0 | 7.0 | 0.00 | 0.05 | 0.00 | 63 | 1026.4 |
| 20260831061044 | 58 | 260 | 0.0 | 5.0 | 0.00 | 0.05 | 0.00 | 64 | 1026.4 |
| 20260831060543 | 58 | 0 | 0.0 | 5.0 | 0.00 | 0.05 | 0.00 | 64 | 1026.4 |
| 20260831060100 | 57 | 0 | 0.0 | 7.0 | 0.00 | 0.05 | 0.00 | 64 | 1026.3 |
| 20260831055543 | 57 | 0 | 2.0 | 7.0 | 0.00 | 0.05 | 0.05 | 64 | 1026.5 |
| 20260831055044 | 57 | 0 | 0.0 | 4.0 | 0.00 | 0.05 | 0.05 | 64 | 1026.4 |
| 20260831054553 | 57 | 0 | 0.0 | 5.0 | 0.00 | 0.05 | 0.05 | 64 | 1026.4 |
| 20260831054046 | 58 | 0 | 0.0 | 8.0 | 0.00 | 0.05 | 0.05 | 64 | 1026.6 |
| 20260831053544 | 58 | 0 | 0.0 | 8.0 | 0.00 | 0.05 | 0.05 | 64 | 1026.7 |
| 20260831053102 | 58 | 211 | 0.0 | 10.0 | 0.00 | 0.05 | 0.05 | 64 | 1026.8 |
| 20260831052544 | 58 | 0 | 1.0 | 10.0 | 0.00 | 0.05 | 0.05 | 63 | 1026.7 |
| 20260831052047 | 58 | 0 | 1.0 | 11.0 | 0.00 | 0.05 | 0.05 | 63 | 1026.8 |
| 20260831051558 | 58 | 290 | 3.0 | 11.0 | 0.00 | 0.05 | 0.05 | 63 | 1027.2 |
| 20260831051044 | 59 | 271 | 1.0 | 11.0 | 0.00 | 0.05 | 0.05 | 63 | 1027.7 |
| 20260831050543 | 59 | 265 | 0.0 | 17.0 | 0.00 | 0.05 | 0.05 | 63 | 1027.8 |
| 20260831050101 | 59 | 300 | 3.0 | 17.0 | 0.00 | 0.05 | 0.05 | 62 | 1027.8 |
| 20260831045543 | 60 | 287 | 3.0 | 14.0 | 0.00 | 0.05 | 0.05 | 61 | 1028.1 |
| 20260831045043 | 60 | 0 | 3.0 | 14.0 | 0.00 | 0.05 | 0.05 | 61 | 1028.2 |
| 20260831044606 | 61 | 0 | 3.0 | 14.0 | 0.00 | 0.05 | 0.05 | 60 | 1028.4 |
| 20260831044042 | 61 | 213 | 3.0 | 14.0 | 0.00 | 0.05 | 0.05 | 59 | 1028.4 |
| 20260831043543 | 61 | 182 | 2.0 | 13.0 | 0.00 | 0.05 | 0.05 | 59 | 1028.3 |
| 20260831043059 | 61 | 238 | 2.0 | 9.0 | 0.00 | 0.05 | 0.05 | 59 | 1028.3 |
| 20260831042544 | 61 | 0 | 1.0 | 9.0 | 0.00 | 0.05 | 0.05 | 59 | 1028.1 |
| 20260831042047 | 61 | 229 | 0.0 | 11.0 | 0.00 | 0.05 | 0.05 | 59 | 1028.1 |
| 20260831041608 | 61 | 306 | 1.0 | 11.0 | 0.00 | 0.05 | 0.05 | 59 | 1027.9 |
| 20260831041046 | 61 | 0 | 0.0 | 9.0 | 0.00 | 0.05 | 0.05 | 60 | 1027.7 |
| 20260831040545 | 61 | 0 | 0.0 | 6.0 | 0.00 | 0.05 | 0.05 | 60 | 1027.5 |
| 20260831040058 | 61 | 0 | 0.0 | 7.0 | 0.00 | 0.05 | 0.05 | 60 | 1027.1 |
| 20260831035544 | 60 | 0 | 0.0 | 7.0 | 0.00 | 0.05 | 0.05 | 61 | 1027.1 |
| 20260831035044 | 60 | 0 | 0.0 | 0.0 | 0.00 | 0.05 | 0.05 | 62 | 1027.0 |
| 20260831034604 | 60 | 0 | 0.0 | 2.0 | 0.00 | 0.05 | 0.05 | 62 | 1026.7 |
| 20260831034044 | 60 | 0 | 0.0 | 2.0 | 0.00 | 0.05 | 0.05 | 62 | 1026.8 |
| 20260831033544 | 60 | 0 | 0.0 | 2.0 | 0.00 | 0.05 | 0.05 | 62 | 1026.7 |
| 20260831033059 | 60 | 0 | 0.0 | 1.0 | 0.00 | 0.05 | 0.05 | 62 | 1026.7 |
| 20260831032546 | 60 | 0 | 0.0 | 1.0 | 0.00 | 0.05 | 0.05 | 61 | 1026.7 |
| 20260831032049 | 61 | 0 | 0.0 | 1.0 | 0.00 | 0.05 | 0.05 | 61 | 1026.7 |